Time,TemperatureF,DewpointF,PressureIn,WindDirection,WindDirectionDegrees,WindSpeedMPH,WindSpeedGustMPH,Humidity,HourlyPrecipIn,Conditions,Clouds,dailyrainin,SoftwareType,DateUTC
2013-11-06 00:06:00,57.2,47.0,30.15,SE,146,0.0,6.0,69,0.00,,,0.00,weatherlink.com 1.10,2013-11-06 06:06:00,
2013-11-06 00:21:00,57.2,47.0,30.14,South,171,0.0,6.0,69,0.00,,,0.00,weatherlink.com 1.10,2013-11-06 06:21:00,
2013-11-06 00:36:00,57.2,47.0,30.14,SSW,203,0.0,8.0,69,0.00,,,0.00,weatherlink.com 1.10,2013-11-06 06:36:00,
2013-11-06 00:51:00,57.0,47.0,30.14,SSE,166,0.0,5.0,70,0.00,,,0.00,weatherlink.com 1.10,2013-11-06 06:51:00,
2013-11-06 01:06:00,57.1,47.0,30.13,SSE,166,0.0,6.0,69,0.00,,,0.00,weatherlink.com 1.10,2013-11-06 07:06:00,
2013-11-06 01:21:00,57.2,47.0,30.12,SSE,166,1.0,5.0,69,0.00,,,0.00,weatherlink.com 1.10,2013-11-06 07:21:00,
2013-11-06 01:36:00,57.0,47.0,30.12,South,181,0.0,6.0,70,0.00,,,0.00,weatherlink.com 1.10,2013-11-06 07:36:00,
2013-11-06 01:52:00,56.7,47.0,30.11,South,184,3.0,11.0,70,0.00,,,0.00,weatherlink.com 1.10,2013-11-06 07:52:00,
2013-11-06 02:07:00,56.6,46.0,30.10,SSE,153,0.0,7.0,69,0.00,,,0.00,weatherlink.com 1.10,2013-11-06 08:07:00,
2013-11-06 02:22:00,56.8,46.0,30.10,SSE,152,0.0,9.0,68,0.00,,,0.00,weatherlink.com 1.10,2013-11-06 08:22:00,
2013-11-06 02:37:00,57.1,46.0,30.09,South,176,0.0,12.0,67,0.00,,,0.00,weatherlink.com 1.10,2013-11-06 08:37:00,
2013-11-06 02:52:00,57.5,46.0,30.09,SE,146,0.0,11.0,65,0.00,,,0.00,weatherlink.com 1.10,2013-11-06 08:52:00,
2013-11-06 03:07:00,57.8,45.0,30.08,South,171,8.0,10.0,63,0.00,,,0.00,weatherlink.com 1.10,2013-11-06 09:07:00,
2013-11-06 03:22:00,58.1,45.0,30.08,South,182,4.0,10.0,62,0.00,,,0.00,weatherlink.com 1.10,2013-11-06 09:22:00,
2013-11-06 03:37:00,58.0,44.0,30.07,SSE,151,6.0,14.0,61,0.00,,,0.00,weatherlink.com 1.10,2013-11-06 09:37:00,
2013-11-06 03:52:00,57.7,44.0,30.07,SSE,159,1.0,9.0,61,0.00,,,0.00,weatherlink.com 1.10,2013-11-06 09:52:00,
2013-11-06 04:07:00,57.4,45.0,30.08,SSE,155,0.0,11.0,63,0.00,,,0.00,weatherlink.com 1.10,2013-11-06 10:07:00,
2013-11-06 04:22:00,57.0,45.0,30.07,South,180,2.0,7.0,64,0.00,,,0.00,weatherlink.com 1.10,2013-11-06 10:22:00,
2013-11-06 04:37:00,56.7,45.0,30.07,SSE,157,3.0,7.0,65,0.00,,,0.00,weatherlink.com 1.10,2013-11-06 10:37:00,
2013-11-06 04:52:00,56.6,44.0,30.07,South,188,4.0,10.0,64,0.00,,,0.00,weatherlink.com 1.10,2013-11-06 10:52:00,
2013-11-06 05:07:00,56.9,45.0,30.07,SSW,192,2.0,9.0,64,0.00,,,0.00,weatherlink.com 1.10,2013-11-06 11:07:00,
2013-11-06 05:22:00,56.8,45.0,30.07,South,182,0.0,10.0,64,0.00,,,0.00,weatherlink.com 1.10,2013-11-06 11:22:00,
2013-11-06 05:37:00,56.5,45.0,30.07,SE,143,2.0,10.0,65,0.00,,,0.00,weatherlink.com 1.10,2013-11-06 11:37:00,
2013-11-06 05:52:00,56.5,45.0,30.06,South,180,6.0,11.0,65,0.00,,,0.00,weatherlink.com 1.10,2013-11-06 11:52:00,
2013-11-06 06:07:00,56.8,45.0,30.06,South,176,6.0,9.0,66,0.00,,,0.00,weatherlink.com 1.10,2013-11-06 12:07:00,
2013-11-06 06:22:00,56.9,46.0,30.06,SSW,210,7.0,11.0,66,0.00,,,0.00,weatherlink.com 1.10,2013-11-06 12:22:00,
2013-11-06 06:37:00,57.1,46.0,30.06,SSE,157,2.0,11.0,67,0.00,,,0.00,weatherlink.com 1.10,2013-11-06 12:37:00,
2013-11-06 06:52:00,57.5,47.0,30.05,SSW,194,1.0,9.0,68,0.00,,,0.00,weatherlink.com 1.10,2013-11-06 12:52:00,
2013-11-06 07:07:00,57.8,47.0,30.05,SSE,159,3.0,10.0,68,0.00,,,0.00,weatherlink.com 1.10,2013-11-06 13:07:00,
2013-11-06 07:22:00,58.4,48.0,30.05,SSE,151,9.0,16.0,69,0.00,,,0.00,weatherlink.com 1.10,2013-11-06 13:22:00,
2013-11-06 07:37:00,58.8,49.0,30.06,SSE,166,1.0,13.0,70,0.00,,,0.00,weatherlink.com 1.10,2013-11-06 13:37:00,
2013-11-06 07:52:00,59.0,50.0,30.05,South,186,1.0,14.0,72,0.00,,,0.00,weatherlink.com 1.10,2013-11-06 13:52:00,
2013-11-06 08:08:00,58.0,51.0,30.06,South,181,1.0,12.0,77,0.00,,,0.00,weatherlink.com 1.10,2013-11-06 14:08:00,
2013-11-06 08:24:00,57.0,52.0,30.06,SSE,155,2.0,10.0,82,0.00,,,0.00,weatherlink.com 1.10,2013-11-06 14:24:00,
2013-11-06 08:38:00,56.7,52.0,30.07,South,171,4.0,12.0,83,0.01,,,0.01,weatherlink.com 1.10,2013-11-06 14:38:00,
2013-11-06 08:53:00,56.5,52.0,30.07,South,171,5.0,10.0,85,0.01,,,0.01,weatherlink.com 1.10,2013-11-06 14:53:00,
2013-11-06 09:08:00,56.1,52.0,30.07,SSE,166,1.0,8.0,87,0.02,,,0.02,weatherlink.com 1.10,2013-11-06 15:08:00,
2013-11-06 09:25:00,55.7,53.0,30.07,SSE,157,1.0,10.0,89,0.04,,,0.04,weatherlink.com 1.10,2013-11-06 15:25:00,
2013-11-06 09:40:00,55.5,53.0,30.06,South,171,0.0,6.0,90,0.04,,,0.05,weatherlink.com 1.10,2013-11-06 15:40:00,
2013-11-06 09:55:00,55.5,53.0,30.07,SSE,158,0.0,6.0,91,0.06,,,0.07,weatherlink.com 1.10,2013-11-06 15:55:00,
2013-11-06 10:10:00,55.6,53.0,30.06,SSE,158,3.0,9.0,92,0.06,,,0.08,weatherlink.com 1.10,2013-11-06 16:10:00,
2013-11-06 10:25:00,55.6,53.0,30.06,SSE,166,1.0,8.0,92,0.06,,,0.10,weatherlink.com 1.10,2013-11-06 16:25:00,
2013-11-06 10:42:00,55.7,54.0,30.06,SSE,156,1.0,9.0,92,0.06,,,0.11,weatherlink.com 1.10,2013-11-06 16:42:00,
2013-11-06 10:57:00,55.8,54.0,30.06,SSE,149,2.0,7.0,92,0.05,,,0.12,weatherlink.com 1.10,2013-11-06 16:57:00,
2013-11-06 11:12:00,56.0,54.0,30.06,SSE,166,3.0,7.0,93,0.07,,,0.15,weatherlink.com 1.10,2013-11-06 17:12:00,
2013-11-06 11:27:00,56.3,54.0,30.04,SSE,162,3.0,12.0,93,0.07,,,0.17,weatherlink.com 1.10,2013-11-06 17:27:00,
2013-11-06 11:42:00,56.5,55.0,30.03,SSE,161,1.0,12.0,93,0.07,,,0.18,weatherlink.com 1.10,2013-11-06 17:42:00,
2013-11-06 11:58:00,57.0,55.0,30.02,SSW,193,4.0,12.0,93,0.05,,,0.18,weatherlink.com 1.10,2013-11-06 17:58:00,
2013-11-06 12:13:00,57.2,55.0,30.02,South,183,3.0,10.0,92,0.02,,,0.18,weatherlink.com 1.10,2013-11-06 18:13:00,
2013-11-06 12:28:00,57.4,55.0,30.02,SSE,161,5.0,11.0,92,0.01,,,0.18,weatherlink.com 1.10,2013-11-06 18:28:00,
2013-11-06 12:43:00,57.8,56.0,30.01,South,182,1.0,10.0,93,0.01,,,0.19,weatherlink.com 1.10,2013-11-06 18:43:00,
2013-11-06 12:58:00,58.1,56.0,30.01,SSW,199,0.0,8.0,93,0.01,,,0.19,weatherlink.com 1.10,2013-11-06 18:58:00,
2013-11-06 13:13:00,58.3,56.0,30.01,SSE,166,0.0,8.0,92,0.01,,,0.19,weatherlink.com 1.10,2013-11-06 19:13:00,
2013-11-06 13:30:00,58.5,56.0,30.02,SSW,211,0.0,9.0,92,0.01,,,0.19,weatherlink.com 1.10,2013-11-06 19:30:00,
2013-11-06 13:44:00,58.7,57.0,30.02,SW,217,5.0,8.0,95,0.00,,,0.19,weatherlink.com 1.10,2013-11-06 19:44:00,
2013-11-06 14:00:00,59.0,58.0,30.02,SW,218,3.0,9.0,95,0.00,,,0.19,weatherlink.com 1.10,2013-11-06 20:00:00,
2013-11-06 14:15:00,58.9,58.0,30.02,SW,219,2.0,6.0,95,0.00,,,0.19,weatherlink.com 1.10,2013-11-06 20:15:00,
2013-11-06 14:30:00,58.8,57.0,30.02,SW,214,4.0,7.0,94,0.00,,,0.19,weatherlink.com 1.10,2013-11-06 20:30:00,
2013-11-06 14:45:00,58.7,57.0,30.03,SW,221,2.0,6.0,94,0.00,,,0.19,weatherlink.com 1.10,2013-11-06 20:45:00,
2013-11-06 15:01:00,58.6,57.0,30.04,SW,220,2.0,5.0,95,0.00,,,0.19,weatherlink.com 1.10,2013-11-06 21:01:00,
2013-11-06 15:16:00,58.4,57.0,30.03,SW,219,3.0,7.0,95,0.00,,,0.19,weatherlink.com 1.10,2013-11-06 21:16:00,
2013-11-06 15:31:00,58.3,57.0,30.04,SW,217,2.0,8.0,95,0.00,,,0.19,weatherlink.com 1.10,2013-11-06 21:31:00,
2013-11-06 16:16:00,57.9,57.0,30.04,SW,224,2.0,5.0,96,0.00,,,0.19,weatherlink.com 1.10,2013-11-06 22:16:00,
2013-11-06 16:31:00,57.8,57.0,30.04,SSW,213,3.0,6.0,96,0.00,,,0.19,weatherlink.com 1.10,2013-11-06 22:31:00,
2013-11-06 16:46:00,57.8,57.0,30.05,SW,215,2.0,6.0,96,0.02,,,0.21,weatherlink.com 1.10,2013-11-06 22:46:00,
2013-11-06 17:01:00,57.7,57.0,30.04,SW,223,1.0,4.0,96,0.04,,,0.23,weatherlink.com 1.10,2013-11-06 23:01:00,
2013-11-06 17:16:00,57.6,57.0,30.05,SW,220,0.0,4.0,97,0.04,,,0.23,weatherlink.com 1.10,2013-11-06 23:16:00,
2013-11-06 17:31:00,57.6,57.0,30.05,WNW,295,5.0,13.0,97,0.05,,,0.24,weatherlink.com 1.10,2013-11-06 23:31:00,
2013-11-06 17:46:00,54.8,53.0,30.09,NNW,328,0.0,11.0,92,0.04,,,0.25,weatherlink.com 1.10,2013-11-06 23:46:00,
2013-11-06 18:01:00,52.2,50.0,30.09,WNW,293,8.0,11.0,93,0.04,,,0.27,weatherlink.com 1.10,2013-11-07 00:01:00,
2013-11-06 18:16:00,50.9,49.0,30.11,WSW,237,1.0,8.0,94,0.05,,,0.28,weatherlink.com 1.10,2013-11-07 00:16:00,
2013-11-06 18:31:00,50.3,49.0,30.12,WNW,292,6.0,9.0,95,0.05,,,0.29,weatherlink.com 1.10,2013-11-07 00:31:00,
2013-11-06 18:46:00,49.5,48.0,30.13,WNW,288,6.0,12.0,93,0.05,,,0.30,weatherlink.com 1.10,2013-11-07 00:46:00,
2013-11-06 19:01:00,48.4,47.0,30.14,WNW,289,4.0,16.0,94,0.03,,,0.30,weatherlink.com 1.10,2013-11-07 01:01:00,
2013-11-06 19:16:00,47.2,45.0,30.14,North,9,1.0,10.0,93,0.03,,,0.31,weatherlink.com 1.10,2013-11-07 01:16:00,
2013-11-06 19:31:00,46.5,45.0,30.14,WNW,290,1.0,9.0,93,0.03,,,0.32,weatherlink.com 1.10,2013-11-07 01:31:00,
2013-11-06 19:47:00,45.7,44.0,30.16,WNW,300,4.0,9.0,93,0.02,,,0.32,weatherlink.com 1.10,2013-11-07 01:47:00,
2013-11-06 20:02:00,45.1,43.0,30.15,WNW,303,1.0,8.0,93,0.03,,,0.33,weatherlink.com 1.10,2013-11-07 02:02:00,
2013-11-06 20:17:00,44.8,43.0,30.17,NW,307,1.0,10.0,94,0.02,,,0.33,weatherlink.com 1.10,2013-11-07 02:17:00,
2013-11-06 20:32:00,44.4,43.0,30.16,NNE,31,0.0,7.0,94,0.01,,,0.33,weatherlink.com 1.10,2013-11-07 02:32:00,
2013-11-06 20:47:00,44.2,43.0,30.18,WNW,294,4.0,7.0,94,0.02,,,0.34,weatherlink.com 1.10,2013-11-07 02:47:00,
2013-11-06 21:02:00,44.1,43.0,30.19,NW,306,2.0,9.0,95,0.01,,,0.34,weatherlink.com 1.10,2013-11-07 03:02:00,
2013-11-06 21:17:00,43.9,42.0,30.19,West,263,6.0,9.0,94,0.01,,,0.34,weatherlink.com 1.10,2013-11-07 03:17:00,
2013-11-06 21:32:00,43.8,42.0,30.20,NW,315,5.0,16.0,94,0.01,,,0.34,weatherlink.com 1.10,2013-11-07 03:32:00,
2013-11-06 21:47:00,43.7,42.0,30.20,WNW,290,4.0,9.0,94,0.00,,,0.34,weatherlink.com 1.10,2013-11-07 03:47:00,
2013-11-06 22:02:00,43.6,42.0,30.20,NW,307,2.0,7.0,93,0.00,,,0.34,weatherlink.com 1.10,2013-11-07 04:02:00,
2013-11-06 22:17:00,43.6,42.0,30.21,NW,320,3.0,7.0,93,0.00,,,0.34,weatherlink.com 1.10,2013-11-07 04:17:00,
2013-11-06 22:32:00,43.5,42.0,30.21,WNW,300,1.0,5.0,93,0.00,,,0.34,weatherlink.com 1.10,2013-11-07 04:32:00,
2013-11-06 22:47:00,43.3,41.0,30.21,NW,315,1.0,5.0,92,0.00,,,0.34,weatherlink.com 1.10,2013-11-07 04:47:00,
2013-11-06 23:02:00,43.1,41.0,30.22,North,359,2.0,6.0,92,0.00,,,0.34,weatherlink.com 1.10,2013-11-07 05:02:00,
2013-11-06 23:17:00,42.7,41.0,30.22,West,280,2.0,5.0,92,0.00,,,0.34,weatherlink.com 1.10,2013-11-07 05:17:00,
2013-11-06 23:32:00,42.3,40.0,30.23,WNW,288,0.0,5.0,92,0.00,,,0.34,weatherlink.com 1.10,2013-11-07 05:32:00,
2013-11-06 23:47:00,41.7,40.0,30.23,NW,305,1.0,4.0,92,0.00,,,0.34,weatherlink.com 1.10,2013-11-07 05:47:00,